Time;durP1;ratioP1;P1;durP2;ratioP2;P2;SDS_P1;SDS_P2;PMS_P1;PMS_P2;Temp;Humidity;BMP_temperature;BMP_pressure;BME280_temperature;BME280_humidity;BME280_pressure;Samples;Min_cycle;Max_cycle;Signal;HPM_P1;HPM_P2
2022/03/06 00:01:20;;;;;;;33.43;21.17;;;;;;;;;;4774062;29;20055;-89
2022/03/06 00:03:47;;;;;;;36.90;21.00;;;-0.30;99.90;;;;;;4773488;29;20047;-88
2022/03/06 00:06:13;;;;;;;31.03;20.87;;;0.60;99.90;;;;;;4788830;29;20151;-88
2022/03/06 00:08:41;;;;;;;34.80;20.53;;;0.30;99.90;;;;;;4787903;29;20051;-88
2022/03/06 00:11:08;;;;;;;32.30;20.23;;;;;;;;;;4773989;29;20063;-89
2022/03/06 00:13:34;;;;;;;32.88;20.58;;;-0.20;99.90;;;;;;4788140;29;20480;-88
2022/03/06 00:16:00;;;;;;;35.80;20.43;;;-0.60;99.90;;;;;;4775743;29;20047;-88
2022/03/06 00:18:26;;;;;;;33.27;21.50;;;-2.00;99.90;;;;;;4791819;29;20107;-89
2022/03/06 00:20:53;;;;;;;35.10;21.90;;;;;;;;;;4785066;29;20066;-88
2022/03/06 00:23:20;;;;;;;31.07;21.33;;;0.20;99.90;;;;;;4825037;29;20712;-88
2022/03/06 00:25:46;;;;;;;38.67;20.67;;;0.20;99.90;;;;;;4796295;29;20042;-90
2022/03/06 00:28:12;;;;;;;31.07;21.10;;;;;;;;;;4795559;29;20058;-87
2022/03/06 00:30:38;;;;;;;33.50;20.70;;;0.50;99.90;;;;;;4810150;29;20054;-87
2022/03/06 00:33:05;;;;;;;32.50;21.33;;;1.00;99.90;;;;;;4810060;29;20120;-88
2022/03/06 00:35:32;;;;;;;28.83;19.48;;;0.80;99.90;;;;;;4809672;29;20058;-88
2022/03/06 00:37:58;;;;;;;33.63;20.03;;;;;;;;;;4809958;29;20203;-89
2022/03/06 00:40:24;;;;;;;30.97;19.53;;;1.10;99.90;;;;;;4809734;29;20053;-89
2022/03/06 00:42:51;;;;;;;27.60;17.80;;;1.10;99.90;;;;;;4809533;29;20727;-89
2022/03/06 00:45:17;;;;;;;29.30;16.70;;;3.80;99.90;;;;;;4794295;29;20058;-88
2022/03/06 00:47:43;;;;;;;28.67;18.13;;;;;;;;;;4809181;29;20073;-88
2022/03/06 00:50:09;;;;;;;27.77;17.70;;;1.20;97.00;;;;;;4809723;29;20055;-88
2022/03/06 00:52:36;;;;;;;25.87;17.77;;;1.00;99.90;;;;;;4794085;29;20050;-89
2022/03/06 00:55:02;;;;;;;28.17;17.70;;;2.10;96.60;;;;;;4794278;29;20053;-88
2022/03/06 00:57:28;;;;;;;24.70;15.90;;;2.50;99.90;;;;;;4809080;29;20141;-89
2022/03/06 00:59:54;;;;;;;24.77;16.53;;;2.60;99.90;;;;;;4809092;29;20137;-88
2022/03/06 01:02:20;;;;;;;26.67;17.73;;;1.60;91.30;;;;;;4809424;29;20445;-88
2022/03/06 01:04:45;;;;;;;25.23;15.93;;;1.30;99.90;;;;;;4808887;29;20401;-89
2022/03/06 01:07:11;;;;;;;28.53;15.83;;;2.00;98.00;;;;;;4794702;29;20141;-89
2022/03/06 01:09:37;;;;;;;25.73;15.80;;;2.60;98.70;;;;;;4809381;29;20485;-88
2022/03/06 01:12:03;;;;;;;25.73;14.43;;;3.00;96.50;;;;;;4808897;29;20095;-88
2022/03/06 01:14:30;;;;;;;29.17;15.50;;;;;;;;;;4793898;29;20408;-89
2022/03/06 01:16:55;;;;;;;26.63;15.47;;;2.90;82.80;;;;;;4808651;29;20046;-88
2022/03/06 01:19:21;;;;;;;24.40;14.77;;;1.80;81.10;;;;;;4824582;29;20069;-89
2022/03/06 01:21:47;;;;;;;29.73;15.73;;;1.20;96.30;;;;;;4793044;29;20486;-89
2022/03/06 01:24:13;;;;;;;27.07;16.63;;;2.60;93.50;;;;;;4808581;29;20073;-89
2022/03/06 01:26:39;;;;;;;26.77;16.03;;;;;;;;;;4793572;29;20081;-89
2022/03/06 01:29:05;;;;;;;24.23;15.27;;;;;;;;;;4778449;29;20465;-89
2022/03/06 01:31:32;;;;;;;29.20;14.67;;;2.00;79.40;;;;;;4808371;29;20073;-90
2022/03/06 01:33:58;;;;;;;25.37;14.43;;;;;;;;;;4808073;29;20085;-89
2022/03/06 01:36:24;;;;;;;22.70;13.67;;;2.00;75.80;;;;;;4808598;29;20375;-88
2022/03/06 01:38:52;;;;;;;25.23;13.57;;;1.30;76.20;;;;;;4793009;29;20051;-89
2022/03/06 01:41:18;;;;;;;26.70;14.73;;;1.90;77.90;;;;;;4808417;29;20131;-89
2022/03/06 01:43:44;;;;;;;21.87;12.77;;;2.10;95.10;;;;;;4792575;29;20062;-89
2022/03/06 01:46:10;;;;;;;22.73;12.98;;;1.90;78.80;;;;;;4793409;29;20483;-89
2022/03/06 01:48:35;;;;;;;21.73;12.90;;;1.90;77.90;;;;;;4792662;29;20110;-90
2022/03/06 01:51:01;;;;;;;22.13;12.40;;;2.00;78.80;;;;;;4808262;29;20042;-89
2022/03/06 01:53:27;;;;;;;20.47;12.27;;;2.00;78.00;;;;;;4793166;29;20089;-88
2022/03/06 01:55:53;;;;;;;20.97;13.03;;;2.00;74.90;;;;;;4793153;29;20186;-89
2022/03/06 01:58:19;;;;;;;23.45;11.60;;;;;;;;;;4793259;29;20116;-89
2022/03/06 02:00:48;;;;;;;26.27;12.70;;;1.30;92.50;;;;;;4807140;29;20106;-89
2022/03/06 02:03:15;;;;;;;24.57;13.20;;;2.10;74.00;;;;;;4793275;29;20050;-89
2022/03/06 02:05:42;;;;;;;24.83;12.67;;;2.40;92.10;;;;;;4777799;29;20058;-89
2022/03/06 02:08:08;;;;;;;19.33;11.80;;;;;;;;;;4793903;29;20115;-89
2022/03/06 02:10:37;;;;;;;20.80;12.05;;;2.10;75.40;;;;;;4793469;29;20507;-89
2022/03/06 02:13:04;;;;;;;18.95;11.90;;;2.10;75.90;;;;;;4808504;29;20059;-88
2022/03/06 02:15:33;;;;;;;19.52;12.50;;;2.20;77.30;;;;;;4793255;29;20133;-89
2022/03/06 02:17:59;;;;;;;21.23;11.93;;;2.10;78.10;;;;;;4793242;29;20096;-90
2022/03/06 02:20:25;;;;;;;22.57;12.37;;;2.10;77.20;;;;;;4808350;29;20097;-89
2022/03/06 02:22:57;;;;;;;21.70;11.40;;;2.20;94.30;;;;;;4822313;29;20255;-89
2022/03/06 02:25:31;;;;;;;24.20;11.90;;;2.30;82.00;;;;;;4793328;29;20058;-90
2022/03/06 02:27:59;;;;;;;22.13;11.40;;;2.20;75.90;;;;;;4807785;29;20050;-89
2022/03/06 02:30:32;;;;;;;19.60;11.13;;;4.70;82.50;;;;;;4792891;29;20561;-89
2022/03/06 02:32:59;;;;;;;23.77;12.20;;;2.70;82.20;;;;;;4792289;29;20054;-89
2022/03/06 02:35:26;;;;;;;20.25;12.43;;;3.40;92.80;;;;;;4792777;29;20484;-88
2022/03/06 02:37:53;;;;;;;21.53;11.83;;;;;;;;;;4792593;29;20054;-89
2022/03/06 02:40:20;;;;;;;24.67;11.50;;;2.30;75.00;;;;;;4808391;29;20464;-89
2022/03/06 02:42:47;;;;;;;25.00;10.90;;;2.30;72.00;;;;;;4792892;29;20050;-88
2022/03/06 02:45:22;;;;;;;22.27;9.95;;;2.30;69.80;;;;;;4793167;29;20050;-89
2022/03/06 02:47:49;;;;;;;20.27;11.00;;;2.50;92.00;;;;;;4792659;29;20046;-89
2022/03/06 02:50:20;;;;;;;20.65;10.95;;;2.90;90.90;;;;;;4793407;29;20058;-88
2022/03/06 02:52:46;;;;;;;16.73;10.43;;;2.40;92.10;;;;;;4792518;29;20089;-88
2022/03/06 02:55:13;;;;;;;24.38;11.65;;;3.00;84.30;;;;;;4792134;29;20095;-87
2022/03/06 02:57:39;;;;;;;19.40;10.48;;;4.60;92.80;;;;;;4792404;29;20094;-88
2022/03/06 03:00:07;;;;;;;20.73;10.55;;;3.80;85.90;;;;;;4806904;29;20292;-87
2022/03/06 03:02:34;;;;;;;20.37;10.53;;;3.60;94.60;;;;;;4791659;29;20081;-88
2022/03/06 03:05:00;;;;;;;21.25;10.68;;;1.80;87.50;;;;;;4806988;29;20046;-87
2022/03/06 03:07:26;;;;;;;19.92;10.60;;;2.00;77.90;;;;;;4806904;29;20053;-87
2022/03/06 03:09:54;;;;;;;23.10;11.45;;;2.00;80.00;;;;;;4792071;29;20145;-87
2022/03/06 03:12:20;;;;;;;;;;;3.90;91.20;;;;;;4823045;29;20539;-88
2022/03/06 03:14:46;;;;;;;18.00;9.97;;;-0.60;97.70;;;;;;4806769;29;19971;-87
2022/03/06 03:17:12;;;;;;;22.40;10.47;;;;;;;;;;4823416;29;20081;-88
2022/03/06 03:19:37;;;;;;;22.63;11.63;;;1.70;87.00;;;;;;4807026;29;20133;-88
2022/03/06 03:22:03;;;;;;;20.07;11.73;;;2.30;97.40;;;;;;4806941;29;20149;-87
2022/03/06 03:24:30;;;;;;;22.20;11.93;;;;;;;;;;4807063;29;20382;-87
2022/03/06 03:26:55;;;;;;;23.53;12.67;;;1.00;99.90;;;;;;4807327;29;20156;-88
2022/03/06 03:29:22;;;;;;;22.67;13.03;;;;;;;;;;4807657;29;20452;-89
2022/03/06 03:31:48;;;;;;;24.43;12.57;;;;;;;;;;4807196;29;20086;-90
2022/03/06 03:34:14;;;;;;;27.27;13.27;;;0.50;99.90;;;;;;4807563;29;20141;-90
2022/03/06 03:36:40;;;;;;;21.53;12.53;;;4.10;99.90;;;;;;4792511;29;20153;-90
2022/03/06 03:39:06;;;;;;;22.73;13.83;;;1.10;99.90;;;;;;4792505;29;20062;-88
2022/03/06 03:41:32;;;;;;;25.13;12.60;;;;;;;;;;4807862;29;20055;-89
2022/03/06 03:44:01;;;;;;;22.57;13.43;;;1.00;99.90;;;;;;4807058;29;20076;-89
2022/03/06 03:46:27;;;;;;;24.67;12.87;;;3.70;99.90;;;;;;4806999;29;20101;-89
2022/03/06 03:48:55;;;;;;;27.97;12.07;;;1.00;99.90;;;;;;4776343;29;20219;-89
2022/03/06 03:51:21;;;;;;;23.63;11.67;;;1.00;99.90;;;;;;4825039;29;20043;-89
2022/03/06 03:53:47;;;;;;;23.80;10.53;;;;;;;;;;4795254;29;20065;-89
2022/03/06 03:56:13;;;;;;;17.07;9.97;;;0.70;99.90;;;;;;4810508;29;20046;-89
2022/03/06 03:58:38;;;;;;;19.93;10.97;;;0.90;99.90;;;;;;4795097;29;20050;-89
2022/03/06 04:01:04;;;;;;;23.90;10.60;;;3.20;99.90;;;;;;4809772;29;20507;-90
2022/03/06 04:03:30;;;;;;;17.73;9.83;;;0.10;99.90;;;;;;4795266;29;20054;-90
2022/03/06 04:05:56;;;;;;;21.20;9.93;;;0.90;99.90;;;;;;4810307;29;20153;-90
2022/03/06 04:08:22;;;;;;;16.93;9.43;;;0.90;99.90;;;;;;4794807;29;20139;-90
2022/03/06 04:10:47;;;;;;;21.03;9.63;;;0.90;99.90;;;;;;4794747;29;20050;-90
2022/03/06 04:13:14;;;;;;;17.33;9.00;;;;;;;;;;4826813;29;20060;-90
2022/03/06 04:15:39;;;;;;;19.83;8.93;;;0.90;99.90;;;;;;4795371;29;20126;-90
2022/03/06 04:18:05;;;;;;;18.63;8.27;;;0.90;99.90;;;;;;4795160;29;20567;-90
2022/03/06 04:20:32;;;;;;;17.70;8.50;;;;;;;;;;4805748;29;20055;-90
2022/03/06 04:22:58;;;;;;;20.37;8.13;;;1.00;99.90;;;;;;4792137;29;20121;-89
2022/03/06 04:25:24;;;;;;;17.63;8.57;;;3.80;99.90;;;;;;4776803;29;20161;-89
2022/03/06 04:27:52;;;;;;;16.33;8.30;;;;;;;;;;4776864;29;20345;-89
2022/03/06 04:30:18;;;;;;;16.33;8.03;;;0.90;99.90;;;;;;4791988;29;20074;-89
2022/03/06 04:32:44;;;;;;;17.73;9.23;;;2.80;99.90;;;;;;4776649;29;20516;-90
2022/03/06 04:35:11;;;;;;;19.20;9.07;;;0.90;99.90;;;;;;4776951;29;20191;-89
2022/03/06 04:37:36;;;;;;;19.23;8.77;;;0.80;99.90;;;;;;4762186;29;20054;-89
2022/03/06 04:40:03;;;;;;;18.73;8.40;;;1.60;99.90;;;;;;4790744;29;20141;-89
2022/03/06 04:42:29;;;;;;;20.57;8.07;;;;;;;;;;4776554;29;20133;-89
2022/03/06 04:44:55;;;;;;;21.90;9.00;;;;;;;;;;4790606;29;20586;-89
2022/03/06 04:47:21;;;;;;;18.43;8.77;;;0.80;99.90;;;;;;4790786;29;20050;-89
2022/03/06 04:49:47;;;;;;;18.23;8.90;;;;;;;;;;4761118;29;20136;-89
2022/03/06 04:52:13;;;;;;;13.83;7.80;;;1.20;99.90;;;;;;4761136;29;20312;-89
2022/03/06 04:54:39;;;;;;;19.77;8.77;;;0.80;99.90;;;;;;4791066;29;20055;-90
2022/03/06 04:57:05;;;;;;;29.50;8.57;;;3.20;99.90;;;;;;4775747;29;20537;-89
2022/03/06 04:59:31;;;;;;;19.27;8.57;;;;;;;;;;4806744;29;20051;-89
2022/03/06 05:01:57;;;;;;;14.70;8.07;;;;;;;;;;4760728;29;20089;-89
2022/03/06 05:04:23;;;;;;;20.33;8.30;;;0.70;99.90;;;;;;4805944;29;20397;-89
2022/03/06 05:06:48;;;;;;;14.90;8.17;;;1.00;99.90;;;;;;4790750;29;20103;-89
2022/03/06 05:09:15;;;;;;;16.77;8.27;;;;;;;;;;4790854;29;20465;-88
2022/03/06 05:11:43;;;;;;;15.20;8.13;;;0.50;99.90;;;;;;4790548;29;20055;-90
2022/03/06 05:14:08;;;;;;;22.63;8.68;;;0.40;99.90;;;;;;4806651;29;20055;-89
2022/03/06 05:16:37;;;;;;;16.07;8.10;;;0.30;99.90;;;;;;4775567;29;20057;-89
2022/03/06 05:19:02;;;;;;;20.07;7.07;;;-0.70;99.90;;;;;;4805362;29;20057;-89
2022/03/06 05:21:28;;;;;;;20.07;7.97;;;-2.40;99.90;;;;;;4786807;29;20118;-89
2022/03/06 05:23:54;;;;;;;14.23;7.87;;;1.40;99.90;;;;;;4825248;29;20058;-89
2022/03/06 05:26:20;;;;;;;13.67;7.00;;;;;;;;;;4794003;29;20520;-89
2022/03/06 05:28:46;;;;;;;16.67;8.20;;;0.70;99.90;;;;;;4793933;29;20137;-89
2022/03/06 05:31:12;;;;;;;19.20;7.30;;;0.80;99.90;;;;;;4793973;29;20137;-89
2022/03/06 05:33:38;;;;;;;16.80;7.93;;;0.00;99.90;;;;;;4809130;29;20058;-88
2022/03/06 05:36:10;;;;;;;16.57;7.80;;;;;;;;;;4825697;29;20457;-89
2022/03/06 05:38:36;;;;;;;23.37;8.37;;;0.20;99.90;;;;;;4794195;29;20054;-89
2022/03/06 05:41:02;;;;;;;13.37;7.17;;;1.70;99.90;;;;;;4793398;29;20111;-90
2022/03/06 05:43:28;;;;;;;16.97;8.10;;;1.40;99.90;;;;;;4793430;29;20061;-88
2022/03/06 05:45:54;;;;;;;20.83;8.20;;;0.80;99.90;;;;;;4824352;29;20136;-88
2022/03/06 05:48:22;;;;;;;20.43;7.23;;;2.10;99.90;;;;;;4808205;29;20117;-89
2022/03/06 05:50:48;;;;;;;16.67;7.83;;;;;;;;;;4808261;29;20046;-88
2022/03/06 05:53:15;;;;;;;21.00;7.83;;;-0.10;99.90;;;;;;4793134;29;20062;-88
2022/03/06 05:55:43;;;;;;;16.50;7.90;;;0.30;99.90;;;;;;4808394;29;20114;-89
2022/03/06 05:58:09;;;;;;;17.67;7.77;;;;;;;;;;4807514;29;20106;-88
2022/03/06 06:00:35;;;;;;;18.90;7.43;;;0.30;99.90;;;;;;4792728;29;20054;-88
2022/03/06 06:03:00;;;;;;;16.37;7.20;;;0.30;99.90;;;;;;4792528;29;20057;-88
2022/03/06 06:05:27;;;;;;;21.63;7.53;;;;;;;;;;4807426;29;20058;-88
2022/03/06 06:07:53;;;;;;;24.50;8.00;;;-0.30;99.90;;;;;;4792727;29;20057;-89
2022/03/06 06:10:19;;;;;;;15.47;7.40;;;1.10;99.90;;;;;;4807817;29;20054;-88
2022/03/06 06:12:47;;;;;;;14.03;6.77;;;3.00;99.90;;;;;;4822664;29;20061;-88
2022/03/06 06:15:13;;;;;;;19.53;7.60;;;-0.30;99.90;;;;;;4807290;29;20042;-88
2022/03/06 06:17:38;;;;;;;16.50;7.07;;;-0.30;99.90;;;;;;4822467;29;20050;-88
2022/03/06 06:20:06;;;;;;;18.90;6.70;;;-0.10;99.90;;;;;;4822636;29;20129;-88
2022/03/06 06:22:32;;;;;;;16.38;6.93;;;-0.30;99.90;;;;;;4824063;29;20068;-88
2022/03/06 06:24:58;;;;;;;17.97;7.27;;;0.20;99.90;;;;;;4807480;29;20450;-87
2022/03/06 06:27:25;;;;;;;21.37;7.07;;;;;;;;;;4824547;29;20137;-88
2022/03/06 06:29:51;;;;;;;18.27;7.47;;;-0.30;99.90;;;;;;4793269;29;20061;-88
2022/03/06 06:32:17;;;;;;;19.73;7.60;;;;;;;;;;4792735;29;20062;-88
2022/03/06 06:34:44;;;;;;;15.20;7.27;;;-0.20;99.90;;;;;;4807682;29;20490;-88
2022/03/06 06:37:11;;;;;;;17.60;7.45;;;0.60;99.90;;;;;;4807168;29;20403;-88
2022/03/06 06:39:37;;;;;;;16.77;7.37;;;1.40;99.90;;;;;;4823953;29;20054;-88
2022/03/06 06:42:04;;;;;;;15.93;7.67;;;;;;;;;;4823897;29;20054;-89
2022/03/06 06:44:31;;;;;;;14.00;6.53;;;-0.10;99.90;;;;;;4807373;29;20515;-89
2022/03/06 06:46:57;;;;;;;14.18;7.30;;;-2.20;99.90;;;;;;4807344;29;20380;-89
2022/03/06 06:49:22;;;;;;;20.57;7.93;;;0.30;99.90;;;;;;4822694;29;20054;-87
2022/03/06 06:51:49;;;;;;;16.03;7.20;;;;;;;;;;4807369;29;20058;-87
2022/03/06 06:54:18;;;;;;;16.47;7.03;;;0.60;99.90;;;;;;4792750;29;20085;-88
2022/03/06 06:56:43;;;;;;;16.33;6.73;;;0.40;99.90;;;;;;4792269;29;20050;-88
2022/03/06 06:59:10;;;;;;;23.20;7.77;;;;;;;;;;4806522;29;20051;-88
2022/03/06 07:01:35;;;;;;;21.13;7.03;;;0.30;99.90;;;;;;4822673;29;20411;-88
2022/03/06 07:04:01;;;;;;;16.53;7.43;;;-0.70;99.90;;;;;;4807309;29;20050;-88
2022/03/06 07:06:27;;;;;;;16.37;7.20;;;0.60;99.90;;;;;;4807585;29;20058;-88
2022/03/06 07:08:53;;;;;;;16.87;7.77;;;1.00;99.90;;;;;;4792054;29;20077;-87
2022/03/06 07:11:19;;;;;;;17.57;7.80;;;0.60;99.90;;;;;;4806190;29;20046;-87
2022/03/06 07:13:44;;;;;;;16.13;6.80;;;0.60;99.90;;;;;;4792074;29;20118;-87
2022/03/06 07:16:10;;;;;;;16.30;7.00;;;2.40;99.90;;;;;;4823062;29;20049;-87
2022/03/06 07:18:36;;;;;;;17.20;7.40;;;;;;;;;;4806884;29;20051;-87
2022/03/06 07:21:02;;;;;;;16.70;6.83;;;0.70;99.90;;;;;;4791409;29;20058;-86
2022/03/06 07:23:32;;;;;;;16.97;6.60;;;0.80;99.90;;;;;;4806921;29;20141;-87
2022/03/06 07:25:58;;;;;;;17.37;6.60;;;1.80;99.90;;;;;;4794755;29;20349;-87
2022/03/06 07:28:24;;;;;;;16.93;8.13;;;0.80;99.90;;;;;;4794669;29;20046;-88
2022/03/06 07:30:50;;;;;;;19.20;7.57;;;2.00;99.90;;;;;;4828234;29;20054;-88
2022/03/06 07:33:16;;;;;;;15.90;7.57;;;1.00;99.90;;;;;;4826662;29;20069;-88
2022/03/06 07:35:42;;;;;;;14.97;7.97;;;0.90;99.90;;;;;;4811966;29;20400;-89
2022/03/06 07:38:14;;;;;;;16.07;7.13;;;1.10;99.90;;;;;;4831943;29;20154;-87
2022/03/06 07:40:40;;;;;;;15.23;7.30;;;;;;;;;;4817289;29;20050;-89
2022/03/06 07:43:06;;;;;;;14.27;6.67;;;1.60;99.90;;;;;;4818960;29;20115;-89
2022/03/06 07:45:31;;;;;;;11.57;6.23;;;1.50;99.90;;;;;;4836187;29;20051;-88
2022/03/06 07:47:58;;;;;;;18.10;6.67;;;;;;;;;;4838396;29;20054;-86
2022/03/06 07:50:24;;;;;;;23.67;7.53;;;1.60;99.90;;;;;;4806881;29;20110;-88
2022/03/06 07:52:49;;;;;;;14.70;6.43;;;4.70;99.90;;;;;;4814396;29;20091;-87
2022/03/06 07:55:23;;;;;;;17.00;6.00;;;1.60;99.90;;;;;;4822476;29;20085;-88
2022/03/06 07:57:48;;;;;;;11.57;5.37;;;1.90;99.90;;;;;;4831610;29;20107;-89
2022/03/06 08:00:14;;;;;;;13.67;5.57;;;1.00;99.90;;;;;;4813914;29;20046;-87
2022/03/06 08:02:40;;;;;;;11.20;5.70;;;2.00;99.90;;;;;;4814732;29;20111;-87
2022/03/06 08:05:08;;;;;;;9.93;5.07;;;1.70;99.90;;;;;;4832217;29;20046;-86
2022/03/06 08:07:34;;;;;;;13.68;5.50;;;2.10;99.90;;;;;;4833586;29;20053;-88
2022/03/06 08:10:00;;;;;;;13.97;5.63;;;4.30;99.90;;;;;;4799157;29;20054;-87
2022/03/06 08:12:27;;;;;;;11.93;5.20;;;2.10;99.90;;;;;;4803826;29;20481;-87
2022/03/06 08:14:56;;;;;;;12.30;4.43;;;4.80;97.90;;;;;;4836461;29;20054;-86
2022/03/06 08:17:22;;;;;;;13.87;4.53;;;2.60;93.00;;;;;;4804357;29;20065;-88
2022/03/06 08:19:48;;;;;;;14.67;5.17;;;1.70;80.70;;;;;;4818362;29;20512;-87
2022/03/06 08:22:14;;;;;;;13.50;4.70;;;2.70;66.00;;;;;;4837771;29;20065;-88
2022/03/06 08:24:40;;;;;;;10.57;5.23;;;5.90;75.20;;;;;;4825096;29;20086;-88
2022/03/06 08:27:05;;;;;;;11.53;4.17;;;5.80;58.10;;;;;;4815637;29;20137;-87
2022/03/06 08:29:32;;;;;;;11.57;4.23;;;;;;;;;;4826178;29;20113;-87
2022/03/06 08:31:57;;;;;;;11.53;3.77;;;4.60;1.00;;;;;;4809585;29;20093;-88
2022/03/06 08:34:25;;;;;;;8.88;3.42;;;5.90;5.00;;;;;;4795412;29;20054;-87
2022/03/06 08:36:51;;;;;;;8.57;3.75;;;;;;;;;;4794026;29;20054;-87
2022/03/06 08:39:17;;;;;;;8.27;3.50;;;6.60;1.00;;;;;;4824346;29;20122;-88
2022/03/06 08:41:43;;;;;;;8.50;3.23;;;4.80;1.00;;;;;;4810311;29;20063;-89
2022/03/06 08:44:09;;;;;;;9.75;4.13;;;5.10;1.00;;;;;;4810729;29;20451;-89
2022/03/06 08:46:34;;;;;;;10.57;3.53;;;7.80;1.00;;;;;;4809910;29;20051;-89
2022/03/06 08:49:00;;;;;;;8.88;2.90;;;7.20;1.00;;;;;;4794743;29;20512;-89
2022/03/06 08:51:26;;;;;;;11.75;3.65;;;7.30;1.00;;;;;;4808662;29;20358;-89
2022/03/06 08:53:52;;;;;;;8.10;3.28;;;9.10;1.00;;;;;;4824459;29;20477;-88
2022/03/06 08:56:17;;;;;;;10.50;3.20;;;12.30;1.00;;;;;;4793964;29;20046;-88
2022/03/06 08:58:43;;;;;;;9.73;2.97;;;11.80;1.00;;;;;;4794354;29;20094;-88
2022/03/06 09:01:09;;;;;;;9.57;2.85;;;13.10;1.00;;;;;;4794130;29;20133;-89
2022/03/06 09:03:35;;;;;;;10.00;2.72;;;;;;;;;;4793937;29;20526;-89
2022/03/06 09:06:01;;;;;;;8.23;2.83;;;13.90;1.00;;;;;;4794181;29;20535;-88
2022/03/06 09:08:27;;;;;;;7.55;3.22;;;;;;;;;;4793728;29;20054;-88
2022/03/06 09:10:54;;;;;;;11.40;3.10;;;;;;;;;;4824932;29;20054;-88
2022/03/06 09:13:19;;;;;;;7.88;2.80;;;15.30;1.00;;;;;;4793809;29;20057;-88
2022/03/06 09:15:45;;;;;;;7.43;2.70;;;15.30;1.00;;;;;;4808229;29;20050;-88
2022/03/06 09:18:11;;;;;;;9.07;2.90;;;15.50;1.00;;;;;;4808112;29;20065;-88
2022/03/06 09:20:37;;;;;;;7.47;2.85;;;;;;;;;;4789953;29;20273;-88
2022/03/06 09:23:05;;;;;;;9.32;2.60;;;15.60;1.00;;;;;;4791240;29;20059;-89
2022/03/06 09:25:33;;;;;;;8.07;2.50;;;15.70;1.00;;;;;;4761415;29;20122;-88
2022/03/06 09:28:02;;;;;;;;;;;14.20;1.00;;;;;;4776925;29;20094;-88
2022/03/06 09:30:31;;;;;;;;;;;16.10;1.00;;;;;;4790542;29;19932;-89
2022/03/06 09:32:59;;;;;;;10.02;2.63;;;14.40;1.00;;;;;;4790750;29;19925;-89
2022/03/06 09:35:25;;;;;;;6.68;2.42;;;16.60;1.00;;;;;;4790753;29;20122;-89
2022/03/06 09:37:51;;;;;;;8.80;2.75;;;16.50;1.00;;;;;;4775810;29;20130;-89
2022/03/06 09:40:17;;;;;;;6.82;2.58;;;16.80;1.00;;;;;;4790572;29;20146;-88
2022/03/06 09:42:44;;;;;;;10.18;3.00;;;16.10;1.00;;;;;;4789908;29;20122;-89
2022/03/06 09:45:11;;;;;;;8.80;2.55;;;14.00;1.00;;;;;;4775291;29;20472;-88
2022/03/06 09:47:41;;;;;;;8.00;2.22;;;16.40;1.00;;;;;;4802762;29;20047;-89
2022/03/06 09:50:09;;;;;;;7.53;2.20;;;16.60;1.00;;;;;;4758815;29;20473;-89
2022/03/06 09:52:35;;;;;;;9.45;2.63;;;17.00;1.00;;;;;;4758462;29;20485;-89
2022/03/06 09:55:01;;;;;;;7.72;2.45;;;16.20;1.00;;;;;;4773587;29;20107;-88
2022/03/06 09:57:27;;;;;;;9.20;2.60;;;17.40;1.00;;;;;;4774030;29;20066;-89
2022/03/06 09:59:55;;;;;;;8.68;2.50;;;17.70;1.00;;;;;;4788961;29;20058;-88
2022/03/06 10:02:21;;;;;;;8.10;2.20;;;18.00;1.00;;;;;;4788766;29;20051;-88
2022/03/06 10:04:47;;;;;;;7.65;2.72;;;18.30;1.00;;;;;;4759073;29;20050;-88
2022/03/06 10:07:15;;;;;;;8.88;2.95;;;18.30;1.00;;;;;;4773848;29;20046;-88
2022/03/06 10:09:41;;;;;;;;;;;17.80;1.00;;;;;;4774515;29;20093;-88
2022/03/06 10:12:19;;;;;;;7.15;2.65;;;18.00;1.00;;;;;;4788768;29;19988;-88
2022/03/06 10:14:45;;;;;;;;;;;17.40;1.00;;;;;;4774200;29;20054;-88
2022/03/06 10:25:09;;;;;;;7.72;2.60;;;12.40;1.00;;;;;;4789690;29;20064;-88
2022/03/06 10:27:57;;;;;;;8.45;2.75;;;9.50;1.00;;;;;;4792170;29;20054;-89
2022/03/06 10:30:47;;;;;;;9.43;2.90;;;10.40;1.00;;;;;;4822437;29;20046;-87
2022/03/06 10:33:22;;;;;;;5.82;2.20;;;9.60;1.00;;;;;;4791748;29;20050;-87
2022/03/06 10:35:50;;;;;;;11.30;2.90;;;9.00;1.00;;;;;;4791913;29;20133;-86
2022/03/06 10:38:30;;;;;;;9.60;3.13;;;8.90;1.00;;;;;;4792357;29;20137;-87
2022/03/06 10:40:57;;;;;;;10.90;3.38;;;8.70;1.00;;;;;;4823004;29;20046;-89
2022/03/06 10:43:28;;;;;;;8.48;2.78;;;8.20;1.00;;;;;;4806599;29;20208;-88
2022/03/06 10:46:06;;;;;;;8.00;2.65;;;8.50;1.00;;;;;;4792130;29;20050;-89
2022/03/06 10:48:32;;;;;;;9.43;3.03;;;9.00;1.00;;;;;;4822177;29;20050;-87
2022/03/06 10:51:05;;;;;;;7.95;2.72;;;9.30;1.00;;;;;;4791730;29;20042;-86
2022/03/06 10:53:31;;;;;;;8.05;2.90;;;9.70;1.00;;;;;;4791103;29;20092;-86
2022/03/06 10:56:15;;;;;;;7.90;2.75;;;9.40;1.00;;;;;;4790570;29;20054;-85
2022/03/06 10:58:43;;;;;;;8.73;3.20;;;9.10;1.00;;;;;;4822073;29;20057;-85
2022/03/06 11:01:10;;;;;;;8.60;2.80;;;9.30;1.00;;;;;;4822774;29;20061;-86
2022/03/06 11:03:36;;;;;;;8.23;2.80;;;;;;;;;;4790983;29;20047;-86
2022/03/06 11:06:07;;;;;;;10.82;3.65;;;8.50;1.00;;;;;;4791966;29;20346;-87
2022/03/06 11:08:34;;;;;;;7.82;2.85;;;10.80;1.00;;;;;;4792024;29;20065;-87
2022/03/06 11:11:06;;;;;;;9.85;2.67;;;11.80;1.00;;;;;;4792333;29;20133;-87
2022/03/06 11:13:32;;;;;;;8.70;2.90;;;12.90;1.00;;;;;;4806976;29;20054;-87
2022/03/06 11:16:02;;;;;;;7.60;2.90;;;13.90;1.00;;;;;;4791589;29;20043;-87
2022/03/06 11:18:29;;;;;;;8.18;2.78;;;14.80;1.00;;;;;;4791323;29;20054;-86
2022/03/06 11:20:57;;;;;;;8.80;2.97;;;15.60;1.00;;;;;;4806371;29;20054;-87
2022/03/06 11:23:45;;;;;;;7.35;2.50;;;16.30;1.00;;;;;;4791307;29;20061;-86
2022/03/06 11:26:16;;;;;;;8.33;2.83;;;16.90;1.00;;;;;;4791704;29;20054;-87
2022/03/06 11:29:16;;;;;;;7.78;3.15;;;16.90;1.00;;;;;;4806001;29;20476;-87
2022/03/06 11:31:53;;;;;;;6.90;2.50;;;17.50;1.00;;;;;;4791271;29;20062;-87
2022/03/06 11:34:26;;;;;;;8.43;2.70;;;17.80;1.00;;;;;;4805914;29;20420;-87
2022/03/06 11:36:52;;;;;;;7.13;3.17;;;17.90;99.90;;;;;;4790896;29;20042;-87
2022/03/06 11:39:30;;;;;;;9.05;2.80;;;18.00;1.00;;;;;;4790854;29;20125;-87
2022/03/06 11:42:07;;;;;;;9.85;3.08;;;16.40;1.00;;;;;;4821199;29;20511;-86
2022/03/06 11:44:39;;;;;;;9.38;3.22;;;18.40;99.90;;;;;;4790458;29;20137;-86
2022/03/06 11:47:18;;;;;;;8.15;2.85;;;18.50;99.90;;;;;;4805917;29;20047;-86
2022/03/06 11:50:00;;;;;;;8.30;3.03;;;18.80;99.90;;;;;;4805853;29;20085;-86
2022/03/06 11:52:28;;;;;;;7.43;2.97;;;18.70;99.90;;;;;;4790783;29;20073;-86
2022/03/06 11:54:58;;;;;;;6.72;2.63;;;16.90;99.90;;;;;;4790575;29;20047;-87
2022/03/06 11:57:43;;;;;;;8.93;3.08;;;17.60;99.90;;;;;;4791010;29;20053;-87
2022/03/06 12:00:16;;;;;;;7.35;3.00;;;18.10;99.90;;;;;;4791469;29;20072;-85
2022/03/06 12:02:47;;;;;;;10.88;3.60;;;18.00;1.00;;;;;;4821622;29;20046;-86
2022/03/06 12:05:14;;;;;;;10.57;2.85;;;17.60;99.90;;;;;;4791263;29;20046;-86
2022/03/06 12:07:41;;;;;;;9.10;3.10;;;15.30;99.90;;;;;;4790550;29;20090;-86
2022/03/06 12:10:10;;;;;;;8.05;2.72;;;15.30;99.90;;;;;;4805865;29;20519;-87
2022/03/06 12:12:37;;;;;;;10.25;3.08;;;14.70;99.90;;;;;;4808969;29;20082;-86
2022/03/06 12:15:30;;;;;;;10.48;3.10;;;13.90;99.90;;;;;;4809539;29;20373;-87
2022/03/06 12:18:17;;;;;;;9.90;3.28;;;13.60;99.90;;;;;;4794371;29;20138;-86
2022/03/06 12:20:43;;;;;;;7.30;3.10;;;12.20;1.00;;;;;;4809183;29;20290;-86
2022/03/06 12:23:30;;;;;;;;;;;13.90;99.90;;;;;;4824449;29;20389;-84
2022/03/06 12:25:59;;;;;;;12.65;3.22;;;13.90;99.90;;;;;;4809597;29;19925;-86
2022/03/06 12:28:39;;;;;;;9.00;4.15;;;13.00;99.90;;;;;;4809190;29;20057;-88
2022/03/06 12:31:34;;;;;;;9.05;3.00;;;12.30;99.90;;;;;;4809829;29;20133;-87
2022/03/06 12:34:24;;;;;;;8.68;2.97;;;11.80;99.90;;;;;;4794499;29;20050;-88
2022/03/06 12:36:54;;;;;;;9.23;3.15;;;11.50;1.00;;;;;;4807378;29;20137;-86
2022/03/06 12:39:21;;;;;;;8.40;2.97;;;11.10;1.00;;;;;;4808638;29;20050;-87
2022/03/06 12:41:49;;;;;;;11.70;3.42;;;10.80;99.90;;;;;;4808588;29;20061;-87
2022/03/06 12:44:27;;;;;;;9.45;3.22;;;10.80;1.00;;;;;;4793548;29;20084;-88
2022/03/06 12:46:53;;;;;;;11.75;3.30;;;10.50;1.00;;;;;;4793521;29;20057;-89
2022/03/06 12:49:23;;;;;;;9.40;3.28;;;10.20;1.00;;;;;;4793454;29;20054;-89
2022/03/06 12:51:54;;;;;;;11.10;3.20;;;10.40;1.00;;;;;;4792436;29;20133;-90
2022/03/06 12:54:26;;;;;;;9.02;3.20;;;9.80;1.00;;;;;;4807610;29;20107;-88
2022/03/06 12:57:01;;;;;;;9.77;3.35;;;9.80;1.00;;;;;;4792537;29;20489;-89
2022/03/06 12:59:39;;;;;;;9.90;3.63;;;10.00;1.00;;;;;;4791028;29;20042;-89
2022/03/06 13:02:06;;;;;;;9.25;3.30;;;11.00;1.00;;;;;;4792031;29;20046;-88
2022/03/06 13:04:48;;;;;;;7.63;3.05;;;9.70;1.00;;;;;;4791038;29;20058;-88
2022/03/06 13:07:14;;;;;;;11.02;3.35;;;10.10;1.00;;;;;;4807583;29;20403;-89
2022/03/06 13:10:07;;;;;;;12.15;3.55;;;9.20;1.00;;;;;;4792690;29;20057;-88
2022/03/06 13:13:01;;;;;;;8.30;3.05;;;9.60;1.00;;;;;;4792214;29;20145;-88
2022/03/06 13:15:29;;;;;;;11.88;3.63;;;9.50;1.00;;;;;;4792321;29;20050;-88